Time;durP1;ratioP1;P1;durP2;ratioP2;P2;SDS_P1;SDS_P2;PMS_P1;PMS_P2;Temp;Humidity;BMP_temperature;BMP_pressure;BME280_temperature;BME280_humidity;BME280_pressure;Samples;Min_cycle;Max_cycle;Signal;HPM_P1;HPM_P2
2024/01/14 00:01:33;;;;;;;8.65;6.60;;;6.30;99.90;;;;;;4902727;29;20222;-78
2024/01/14 00:04:00;;;;;;;7.43;5.40;;;6.30;99.90;;;;;;4903751;29;20245;-81
2024/01/14 00:06:27;;;;;;;6.38;5.10;;;6.30;99.90;;;;;;4906352;29;20226;-81
2024/01/14 00:08:54;;;;;;;6.07;4.25;;;6.30;99.90;;;;;;4894243;29;20242;-79
2024/01/14 00:11:21;;;;;;;6.47;5.38;;;6.30;99.90;;;;;;4898506;29;20230;-78
2024/01/14 00:13:53;;;;;;;7.25;6.13;;;6.30;99.90;;;;;;4897157;29;20301;-77
2024/01/14 00:16:32;;;;;;;7.38;6.10;;;6.30;99.90;;;;;;4898834;29;20226;-81
2024/01/14 00:19:00;;;;;;;6.47;5.13;;;6.20;99.90;;;;;;4898395;29;20298;-81
2024/01/14 00:21:29;;;;;;;5.50;4.68;;;6.20;99.90;;;;;;4898357;29;20237;-78
2024/01/14 00:24:04;;;;;;;6.60;5.60;;;6.20;99.90;;;;;;4898016;29;20233;-77
2024/01/14 00:26:32;;;;;;;6.38;5.78;;;6.20;99.90;;;;;;4898603;29;20237;-78
2024/01/14 00:29:03;;;;;;;6.47;5.20;;;6.20;99.90;;;;;;4897778;29;20303;-78
2024/01/14 00:31:33;;;;;;;6.30;5.68;;;6.20;99.90;;;;;;4898542;29;20226;-77
2024/01/14 00:34:00;;;;;;;8.45;7.03;;;6.20;99.90;;;;;;4888266;29;20260;-81
2024/01/14 00:36:27;;;;;;;7.47;6.30;;;6.20;99.90;;;;;;4897711;29;20699;-81
2024/01/14 00:38:54;;;;;;;6.32;5.38;;;6.20;99.90;;;;;;4898188;29;20303;-78
2024/01/14 00:41:26;;;;;;;7.00;5.85;;;6.20;99.90;;;;;;4897516;29;20781;-77
2024/01/14 00:43:54;;;;;;;6.28;5.40;;;6.30;99.90;;;;;;4897781;29;20226;-81
2024/01/14 00:46:23;;;;;;;8.48;6.38;;;6.30;99.90;;;;;;4898137;29;20233;-81
2024/01/14 00:48:50;;;;;;;8.40;5.88;;;6.20;99.90;;;;;;4897819;29;20301;-81
2024/01/14 00:51:17;;;;;;;8.90;5.28;;;6.20;99.90;;;;;;4898434;29;20253;-82
2024/01/14 00:53:44;;;;;;;7.60;6.00;;;6.20;99.90;;;;;;4897698;29;20229;-77
2024/01/14 00:56:11;;;;;;;7.30;5.63;;;6.20;99.90;;;;;;4898044;29;20234;-78
2024/01/14 00:58:39;;;;;;;6.63;5.25;;;6.20;99.90;;;;;;4898002;29;20250;-78
2024/01/14 01:01:06;;;;;;;7.35;4.85;;;6.30;99.90;;;;;;4897642;29;20230;-78
2024/01/14 01:03:34;;;;;;;5.10;4.45;;;6.30;99.90;;;;;;4897505;29;20664;-77
2024/01/14 01:06:01;;;;;;;6.22;4.38;;;6.30;99.90;;;;;;4897739;29;21781;-81
2024/01/14 01:08:28;;;;;;;5.78;5.18;;;6.30;99.90;;;;;;4897959;29;20229;-81
2024/01/14 01:10:55;;;;;;;4.88;4.40;;;6.30;99.90;;;;;;4897665;29;20226;-81
2024/01/14 01:13:22;;;;;;;5.50;4.03;;;6.30;99.90;;;;;;4898105;29;20687;-77
2024/01/14 01:15:49;;;;;;;4.93;3.88;;;6.30;99.90;;;;;;4897590;29;20221;-81
2024/01/14 01:18:16;;;;;;;6.75;5.03;;;6.40;99.90;;;;;;4898051;29;20304;-81
2024/01/14 01:20:45;;;;;;;8.02;5.63;;;6.30;99.90;;;;;;4897838;29;20309;-79
2024/01/14 01:23:12;;;;;;;3.58;3.10;;;6.40;99.90;;;;;;4897693;29;20688;-78
2024/01/14 01:25:39;;;;;;;5.43;3.30;;;6.40;99.90;;;;;;4898179;29;20233;-77
2024/01/14 01:28:06;;;;;;;3.83;3.47;;;6.40;99.90;;;;;;4899796;29;20239;-78
2024/01/14 01:30:33;;;;;;;3.35;2.97;;;6.30;99.90;;;;;;4901559;29;20226;-78
2024/01/14 01:33:01;;;;;;;8.35;3.10;;;6.40;99.90;;;;;;4900775;29;20234;-81
2024/01/14 01:35:28;;;;;;;4.38;2.95;;;6.30;99.90;;;;;;4901412;29;20222;-82
2024/01/14 01:37:57;;;;;;;6.65;3.15;;;6.30;99.90;;;;;;4901126;29;20233;-81
2024/01/14 01:40:24;;;;;;;4.95;3.63;;;6.30;99.90;;;;;;4901412;29;20233;-81
2024/01/14 01:42:51;;;;;;;4.68;4.25;;;6.30;99.90;;;;;;4900812;29;20238;-78
2024/01/14 01:45:17;;;;;;;4.78;3.58;;;6.30;99.90;;;;;;4901391;29;20717;-78
2024/01/14 01:47:45;;;;;;;5.18;3.80;;;6.30;99.90;;;;;;4901095;29;20226;-78
2024/01/14 01:50:12;;;;;;;4.50;3.47;;;6.40;99.90;;;;;;4900404;29;20230;-78
2024/01/14 01:52:40;;;;;;;4.45;4.05;;;6.40;99.90;;;;;;4901004;29;20699;-82
2024/01/14 01:55:11;;;;;;;4.82;4.00;;;6.30;99.90;;;;;;4900703;29;20234;-81
2024/01/14 01:57:39;;;;;;;5.60;3.28;;;6.30;99.90;;;;;;4900993;29;20230;-81
2024/01/14 02:00:09;;;;;;;6.60;4.32;;;6.30;99.90;;;;;;4900496;29;20257;-82
2024/01/14 02:02:41;;;;;;;6.05;3.83;;;6.30;99.90;;;;;;4900735;29;20258;-82
2024/01/14 02:05:08;;;;;;;3.42;2.80;;;6.20;99.90;;;;;;4900326;29;20234;-81
2024/01/14 02:07:35;;;;;;;3.42;3.13;;;6.30;99.90;;;;;;4901008;29;20226;-82
2024/01/14 02:10:02;;;;;;;8.27;3.40;;;6.20;99.90;;;;;;4900274;29;20231;-82
2024/01/14 02:12:31;;;;;;;7.03;3.88;;;6.20;99.90;;;;;;4900956;29;20230;-81
2024/01/14 02:14:57;;;;;;;7.32;3.30;;;6.20;99.90;;;;;;4900127;29;20226;-81
2024/01/14 02:17:24;;;;;;;6.40;3.20;;;6.20;99.90;;;;;;4900743;29;20230;-81
2024/01/14 02:19:51;;;;;;;5.90;4.30;;;6.20;99.90;;;;;;4892165;29;20230;-79
2024/01/14 02:22:24;;;;;;;7.15;3.80;;;6.20;99.90;;;;;;4900535;29;20559;-78
2024/01/14 02:24:53;;;;;;;4.28;3.00;;;6.20;99.90;;;;;;4900487;29;20620;-78
2024/01/14 02:27:20;;;;;;;3.63;3.15;;;6.20;99.90;;;;;;4899942;29;20233;-81
2024/01/14 02:29:49;;;;;;;5.05;3.80;;;6.20;99.90;;;;;;4900894;29;20230;-81
2024/01/14 02:32:16;;;;;;;3.53;3.22;;;6.20;99.90;;;;;;4899076;29;20238;-77
2024/01/14 02:34:43;;;;;;;4.18;3.08;;;6.30;99.90;;;;;;4900387;29;20222;-78
2024/01/14 02:37:10;;;;;;;4.95;3.25;;;6.20;99.90;;;;;;4900066;29;20636;-81
2024/01/14 02:39:37;;;;;;;5.85;3.22;;;6.20;99.90;;;;;;4900281;29;20289;-82
2024/01/14 02:42:06;;;;;;;5.78;3.42;;;6.30;99.90;;;;;;4899677;29;20681;-78
2024/01/14 02:44:33;;;;;;;5.18;3.08;;;6.20;99.90;;;;;;4900202;29;20260;-78
2024/01/14 02:47:00;;;;;;;7.47;3.38;;;6.20;99.90;;;;;;4899858;29;20254;-78
2024/01/14 02:49:27;;;;;;;6.07;2.63;;;6.20;99.90;;;;;;4900507;29;20241;-78
2024/01/14 02:51:54;;;;;;;5.18;2.65;;;6.20;99.90;;;;;;4899979;29;20226;-81
2024/01/14 02:54:21;;;;;;;3.97;3.10;;;6.20;99.90;;;;;;4899651;29;20238;-78
2024/01/14 02:56:48;;;;;;;6.72;2.55;;;6.10;99.90;;;;;;4901066;29;20226;-81
2024/01/14 02:59:16;;;;;;;12.23;2.97;;;6.00;99.90;;;;;;4901521;29;20290;-81
2024/01/14 03:01:47;;;;;;;5.47;2.40;;;6.00;99.90;;;;;;4900866;29;20226;-78
2024/01/14 03:04:14;;;;;;;7.88;3.05;;;6.00;99.90;;;;;;4902726;29;20246;-80
2024/01/14 03:06:41;;;;;;;5.78;2.38;;;6.00;99.90;;;;;;4908149;29;20226;-81
2024/01/14 03:09:09;;;;;;;3.95;2.40;;;6.00;99.90;;;;;;4906524;29;20233;-82
2024/01/14 03:11:36;;;;;;;5.18;2.40;;;6.00;99.90;;;;;;4904912;29;20234;-79
2024/01/14 03:14:03;;;;;;;7.05;2.53;;;5.90;99.90;;;;;;4899836;29;20309;-78
2024/01/14 03:16:31;;;;;;;5.30;3.20;;;5.90;99.90;;;;;;4899988;29;20238;-78
2024/01/14 03:18:58;;;;;;;7.72;2.70;;;5.90;99.90;;;;;;4899522;29;20226;-78
2024/01/14 03:21:25;;;;;;;9.00;2.35;;;5.90;99.90;;;;;;4899157;29;20542;-77
2024/01/14 03:23:52;;;;;;;8.50;3.08;;;5.80;99.90;;;;;;4899337;29;20234;-77
2024/01/14 03:26:20;;;;;;;7.55;2.13;;;5.90;99.90;;;;;;4898900;29;20765;-81
2024/01/14 03:28:47;;;;;;;3.55;1.77;;;5.90;99.90;;;;;;4899075;29;20234;-81
2024/01/14 03:31:15;;;;;;;6.18;2.38;;;5.90;99.90;;;;;;4899025;29;20748;-78
2024/01/14 03:33:44;;;;;;;6.53;3.30;;;5.90;99.90;;;;;;4899493;29;20241;-77
2024/01/14 03:36:14;;;;;;;4.22;2.70;;;5.90;99.90;;;;;;4898592;29;20317;-78
2024/01/14 03:38:41;;;;;;;7.78;2.38;;;5.80;99.90;;;;;;4899431;29;20297;-82
2024/01/14 03:41:08;;;;;;;7.90;2.10;;;5.80;99.90;;;;;;4898491;29;20229;-81
2024/01/14 03:43:35;;;;;;;6.10;2.65;;;5.80;99.90;;;;;;4898717;29;20230;-77
2024/01/14 03:46:03;;;;;;;6.38;3.08;;;5.80;99.90;;;;;;4899352;29;20226;-81
2024/01/14 03:48:30;;;;;;;6.30;3.75;;;5.90;99.90;;;;;;4898313;29;20282;-81
2024/01/14 03:50:58;;;;;;;6.80;1.92;;;5.90;99.90;;;;;;4898229;29;20707;-77
2024/01/14 03:53:25;;;;;;;4.60;1.95;;;5.80;99.90;;;;;;4898489;29;20234;-77
2024/01/14 03:55:52;;;;;;;7.32;2.25;;;5.90;99.90;;;;;;4898820;29;20237;-78
2024/01/14 03:58:20;;;;;;;4.38;1.92;;;5.90;99.90;;;;;;4898474;29;20234;-77
2024/01/14 04:00:47;;;;;;;7.70;1.70;;;5.90;99.90;;;;;;4898844;29;20226;-81
2024/01/14 04:03:14;;;;;;;2.03;1.48;;;5.80;99.90;;;;;;4897985;29;20597;-77
2024/01/14 04:05:41;;;;;;;8.05;2.08;;;5.90;99.90;;;;;;4898556;29;20681;-81
2024/01/14 04:08:09;;;;;;;6.78;2.30;;;5.80;99.90;;;;;;4898440;29;20245;-81
2024/01/14 04:10:36;;;;;;;6.10;2.03;;;5.70;99.90;;;;;;4898728;29;20226;-78
2024/01/14 04:13:03;;;;;;;4.90;2.03;;;5.80;99.90;;;;;;4898628;29;20411;-81
2024/01/14 04:15:30;;;;;;;7.45;2.22;;;5.80;99.90;;;;;;4897811;29;20222;-82
2024/01/14 04:17:57;;;;;;;2.88;1.65;;;5.80;99.90;;;;;;4898231;29;20226;-81
2024/01/14 04:20:25;;;;;;;3.88;2.25;;;5.80;99.90;;;;;;4897640;29;20741;-81
2024/01/14 04:22:52;;;;;;;4.82;2.83;;;5.70;99.90;;;;;;4898499;29;20237;-77
2024/01/14 04:25:21;;;;;;;6.00;3.72;;;5.70;99.90;;;;;;4898011;29;20241;-78
2024/01/14 04:27:48;;;;;;;5.78;2.50;;;5.70;99.90;;;;;;4898573;29;20233;-81
2024/01/14 04:30:15;;;;;;;7.93;3.60;;;5.70;99.90;;;;;;4897560;29;20261;-81
2024/01/14 04:32:43;;;;;;;8.98;3.78;;;5.70;99.90;;;;;;4898320;29;20236;-81
2024/01/14 04:35:10;;;;;;;6.38;4.55;;;5.70;99.90;;;;;;4897871;29;20230;-79
2024/01/14 04:37:37;;;;;;;6.85;3.17;;;5.70;99.90;;;;;;4897927;29;20297;-77
2024/01/14 04:40:04;;;;;;;8.25;3.00;;;5.70;99.90;;;;;;4898341;29;20321;-77
2024/01/14 04:42:33;;;;;;;12.05;4.43;;;5.70;99.90;;;;;;4897514;29;20237;-78
2024/01/14 04:45:00;;;;;;;6.07;2.70;;;5.70;99.90;;;;;;4898345;29;20249;-81
2024/01/14 04:47:27;;;;;;;6.13;3.15;;;5.70;99.90;;;;;;4897699;29;20238;-78
2024/01/14 04:49:54;;;;;;;4.85;2.47;;;5.70;99.90;;;;;;4897663;29;20225;-81
2024/01/14 04:52:21;;;;;;;8.60;2.65;;;5.80;99.90;;;;;;4897609;29;20226;-78
2024/01/14 04:54:48;;;;;;;6.07;2.47;;;5.80;99.90;;;;;;4898040;29;20237;-78
2024/01/14 04:57:15;;;;;;;6.30;3.47;;;5.90;99.90;;;;;;4897836;29;20233;-76
2024/01/14 04:59:43;;;;;;;10.80;3.25;;;5.90;99.90;;;;;;4897868;29;20233;-76
2024/01/14 05:02:10;;;;;;;7.85;2.45;;;5.90;99.90;;;;;;4898870;29;20234;-76
2024/01/14 05:04:37;;;;;;;3.78;2.08;;;6.00;99.90;;;;;;4901185;29;20685;-80
2024/01/14 05:07:05;;;;;;;6.18;2.05;;;6.00;99.90;;;;;;4901726;29;20317;-81
2024/01/14 05:09:32;;;;;;;8.90;1.88;;;6.00;99.90;;;;;;4901431;29;20232;-77
2024/01/14 05:11:59;;;;;;;4.25;2.05;;;6.00;99.90;;;;;;4901539;29;20230;-77
2024/01/14 05:14:26;;;;;;;5.72;1.60;;;6.00;99.90;;;;;;4901311;29;20233;-77
2024/01/14 05:16:55;;;;;;;6.00;2.45;;;6.00;99.90;;;;;;4901856;29;20233;-77
2024/01/14 05:19:22;;;;;;;7.35;2.63;;;6.00;99.90;;;;;;4901499;29;20230;-80
2024/01/14 05:21:52;;;;;;;5.47;3.45;;;6.10;99.90;;;;;;4901721;29;20734;-81
2024/01/14 05:24:19;;;;;;;10.07;2.50;;;6.10;99.90;;;;;;4901488;29;20234;-80
2024/01/14 05:26:46;;;;;;;7.60;1.80;;;6.10;99.90;;;;;;4901786;29;20226;-77
2024/01/14 05:29:13;;;;;;;13.13;4.40;;;6.00;99.90;;;;;;4901410;29;20245;-77
2024/01/14 05:31:40;;;;;;;5.65;2.15;;;6.00;99.90;;;;;;4901485;29;20650;-81
2024/01/14 05:34:08;;;;;;;6.63;2.33;;;5.90;99.90;;;;;;4901588;29;20241;-81
2024/01/14 05:36:36;;;;;;;11.00;2.47;;;5.80;99.90;;;;;;4900794;29;20230;-77
2024/01/14 05:39:04;;;;;;;12.23;2.92;;;5.90;99.90;;;;;;4901628;29;20616;-80
2024/01/14 05:41:31;;;;;;;8.35;2.90;;;5.80;99.90;;;;;;4900700;29;20241;-77
2024/01/14 05:43:58;;;;;;;7.40;1.70;;;5.80;99.90;;;;;;4901218;29;20242;-77
2024/01/14 05:46:26;;;;;;;12.05;5.72;;;5.80;99.90;;;;;;4900562;29;20241;-81
2024/01/14 05:48:52;;;;;;;7.80;2.60;;;5.80;99.90;;;;;;4901575;29;20582;-81
2024/01/14 05:51:21;;;;;;;5.35;1.90;;;5.80;99.90;;;;;;4900636;29;20230;-78
2024/01/14 05:53:48;;;;;;;7.75;2.53;;;5.80;99.90;;;;;;4900954;29;20237;-77
2024/01/14 05:56:25;;;;;;;15.40;2.78;;;5.70;99.90;;;;;;4901083;29;20268;-77
2024/01/14 05:58:52;;;;;;;5.35;2.60;;;5.70;99.90;;;;;;4900964;29;20249;-77
2024/01/14 06:01:19;;;;;;;6.05;2.42;;;5.80;99.90;;;;;;4900918;29;20240;-77
2024/01/14 06:03:47;;;;;;;7.45;2.10;;;5.70;99.90;;;;;;4900107;29;20246;-77
2024/01/14 06:06:14;;;;;;;8.15;2.45;;;5.80;99.90;;;;;;4900816;29;20234;-80
2024/01/14 06:08:43;;;;;;;7.45;2.67;;;5.80;99.90;;;;;;4900395;29;20717;-80
2024/01/14 06:11:12;;;;;;;7.68;2.72;;;5.80;99.90;;;;;;4900849;29;20230;-80
2024/01/14 06:13:39;;;;;;;8.60;2.15;;;5.70;99.90;;;;;;4899453;29;20238;-80
2024/01/14 06:16:06;;;;;;;10.88;2.28;;;5.80;99.90;;;;;;4900708;29;20230;-76
2024/01/14 06:18:33;;;;;;;6.85;1.77;;;5.70;99.90;;;;;;4900339;29;20230;-80
2024/01/14 06:21:01;;;;;;;5.60;2.97;;;5.80;99.90;;;;;;4900824;29;20665;-81
2024/01/14 06:23:28;;;;;;;8.13;3.10;;;5.80;99.90;;;;;;4900724;29;20446;-77
2024/01/14 06:25:57;;;;;;;3.22;1.92;;;5.80;99.90;;;;;;4900532;29;20218;-77
2024/01/14 06:28:24;;;;;;;7.30;1.90;;;5.80;99.90;;;;;;4900475;29;20588;-77
2024/01/14 06:30:51;;;;;;;7.95;3.38;;;5.80;99.90;;;;;;4900102;29;20237;-80
2024/01/14 06:33:20;;;;;;;11.38;2.75;;;5.80;99.90;;;;;;4899344;29;20234;-81
2024/01/14 06:35:47;;;;;;;5.63;2.20;;;5.90;99.90;;;;;;4899810;29;20570;-77
2024/01/14 06:38:14;;;;;;;4.97;1.85;;;5.90;99.90;;;;;;4900588;29;20234;-80
2024/01/14 06:40:41;;;;;;;5.22;1.95;;;5.90;99.90;;;;;;4900080;29;20231;-80
2024/01/14 06:43:09;;;;;;;12.55;2.80;;;5.80;99.90;;;;;;4900159;29;20245;-77
2024/01/14 06:45:36;;;;;;;3.38;2.38;;;5.80;99.90;;;;;;4899412;29;20241;-80
2024/01/14 06:48:04;;;;;;;9.23;1.90;;;5.80;99.90;;;;;;4899717;29;20253;-80
2024/01/14 06:50:31;;;;;;;3.78;1.80;;;5.80;99.90;;;;;;4900150;29;20249;-80
2024/01/14 06:52:58;;;;;;;6.22;2.75;;;5.80;99.90;;;;;;4899571;29;20613;-77
2024/01/14 06:55:25;;;;;;;2.75;1.75;;;5.80;99.90;;;;;;4900360;29;20229;-81
2024/01/14 06:57:53;;;;;;;13.57;2.00;;;5.80;99.90;;;;;;4899783;29;20230;-81
2024/01/14 07:00:21;;;;;;;8.77;1.85;;;5.80;99.90;;;;;;4900779;29;20238;-76
2024/01/14 07:02:48;;;;;;;9.23;2.67;;;5.80;99.90;;;;;;4899363;29;20241;-76
2024/01/14 07:05:15;;;;;;;7.82;3.13;;;5.80;99.90;;;;;;4899784;29;20707;-77
2024/01/14 07:07:44;;;;;;;4.80;2.10;;;5.80;99.90;;;;;;4904207;29;20237;-81
2024/01/14 07:10:11;;;;;;;8.38;1.88;;;5.80;99.90;;;;;;4904549;29;20298;-80
2024/01/14 07:12:38;;;;;;;4.85;2.75;;;5.80;99.90;;;;;;4904502;29;20238;-77
2024/01/14 07:15:06;;;;;;;5.30;2.30;;;5.80;99.90;;;;;;4900232;29;20257;-77
2024/01/14 07:17:35;;;;;;;3.72;1.70;;;5.80;99.90;;;;;;4900954;29;20249;-80
2024/01/14 07:20:02;;;;;;;5.95;2.10;;;5.80;99.90;;;;;;4901350;29;20226;-81
2024/01/14 07:22:29;;;;;;;3.10;1.63;;;5.80;99.90;;;;;;4899602;29;20238;-76
2024/01/14 07:24:56;;;;;;;8.20;2.40;;;5.80;99.90;;;;;;4898279;29;20238;-76
2024/01/14 07:27:23;;;;;;;3.00;2.05;;;5.80;99.90;;;;;;4899679;29;20241;-77
2024/01/14 07:29:51;;;;;;;4.60;1.60;;;5.80;99.90;;;;;;4898945;29;20234;-80
2024/01/14 07:32:17;;;;;;;6.15;2.38;;;5.80;99.90;;;;;;4899578;29;20241;-76
2024/01/14 07:34:46;;;;;;;9.10;2.05;;;5.80;99.90;;;;;;4899507;29;20309;-80
2024/01/14 07:37:13;;;;;;;9.77;1.75;;;5.80;99.90;;;;;;4900709;29;20681;-80
2024/01/14 07:39:40;;;;;;;10.45;2.97;;;5.90;99.90;;;;;;4903712;29;20230;-80
2024/01/14 07:42:07;;;;;;;6.22;2.00;;;5.90;99.90;;;;;;4899448;29;20233;-77
2024/01/14 07:44:34;;;;;;;6.32;1.80;;;5.80;99.90;;;;;;4898991;29;20230;-77
2024/01/14 07:47:01;;;;;;;5.28;1.50;;;5.90;99.90;;;;;;4898654;29;20293;-80
2024/01/14 07:49:28;;;;;;;3.65;1.60;;;5.90;99.90;;;;;;4899377;29;20230;-77
2024/01/14 07:51:57;;;;;;;4.00;1.60;;;5.90;99.90;;;;;;4898249;29;20237;-80
2024/01/14 07:54:24;;;;;;;5.35;2.00;;;5.80;99.90;;;;;;4899030;29;20317;-77
2024/01/14 07:56:52;;;;;;;5.05;3.25;;;5.80;99.90;;;;;;4898348;29;20229;-81
2024/01/14 07:59:20;;;;;;;3.20;1.75;;;5.90;99.90;;;;;;4899151;29;20233;-80
2024/01/14 08:01:47;;;;;;;3.95;2.00;;;5.90;99.90;;;;;;4898471;29;20230;-77
2024/01/14 08:04:14;;;;;;;3.55;1.80;;;6.00;99.90;;;;;;4898546;29;20234;-78
2024/01/14 08:06:41;;;;;;;9.32;1.90;;;6.00;99.90;;;;;;4898060;29;20221;-80
2024/01/14 08:09:10;;;;;;;2.88;1.60;;;6.00;99.90;;;;;;4898841;29;20305;-76
2024/01/14 08:11:37;;;;;;;6.65;2.22;;;6.00;99.90;;;;;;4897513;29;20254;-77
2024/01/14 08:14:04;;;;;;;6.63;2.05;;;6.00;99.90;;;;;;4897838;29;20230;-77
2024/01/14 08:16:31;;;;;;;5.95;2.03;;;6.00;99.90;;;;;;4898659;29;20561;-76
2024/01/14 08:18:58;;;;;;;3.95;2.28;;;6.00;99.90;;;;;;4898154;29;20693;-76
2024/01/14 08:21:25;;;;;;;8.02;3.25;;;6.10;99.90;;;;;;4898063;29;20226;-76
2024/01/14 08:23:55;;;;;;;7.38;2.28;;;6.00;99.90;;;;;;4897933;29;20241;-80
2024/01/14 08:26:23;;;;;;;4.57;2.47;;;6.00;99.90;;;;;;4898341;29;20281;-80
2024/01/14 08:28:50;;;;;;;4.97;1.60;;;6.10;99.90;;;;;;4898140;29;20226;-76
2024/01/14 08:31:17;;;;;;;4.13;1.92;;;6.10;99.90;;;;;;4898838;29;20688;-79
2024/01/14 08:33:44;;;;;;;6.32;2.40;;;6.10;99.90;;;;;;4898078;29;20233;-80
2024/01/14 08:36:11;;;;;;;6.03;1.73;;;6.10;99.90;;;;;;4908324;29;20217;-80
2024/01/14 08:38:38;;;;;;;5.60;2.00;;;6.10;99.90;;;;;;4916420;29;20683;-76
2024/01/14 08:41:06;;;;;;;4.10;1.63;;;6.10;99.90;;;;;;4922260;29;20563;-80
2024/01/14 08:43:34;;;;;;;4.22;1.70;;;6.10;99.90;;;;;;4917005;29;20226;-76
2024/01/14 08:46:02;;;;;;;5.50;2.03;;;6.20;99.90;;;;;;4898453;29;20315;-76
2024/01/14 08:48:29;;;;;;;5.93;2.72;;;6.10;99.90;;;;;;4897383;29;20226;-76
2024/01/14 08:50:57;;;;;;;5.25;1.80;;;6.10;99.90;;;;;;4897641;29;20238;-76
2024/01/14 08:53:27;;;;;;;3.78;1.60;;;6.10;99.90;;;;;;4899531;29;20297;-76
2024/01/14 08:55:54;;;;;;;2.13;1.90;;;6.10;99.90;;;;;;4910547;29;20591;-76
2024/01/14 08:58:21;;;;;;;2.03;1.80;;;6.20;99.90;;;;;;4901462;29;20297;-76
2024/01/14 09:00:49;;;;;;;7.45;2.80;;;6.20;99.90;;;;;;4898958;29;20222;-76
2024/01/14 09:03:17;;;;;;;8.57;2.60;;;6.10;99.90;;;;;;4916476;29;20654;-81
2024/01/14 09:05:45;;;;;;;8.48;3.75;;;6.10;99.90;;;;;;4916930;29;20285;-76
2024/01/14 09:08:12;;;;;;;5.60;3.30;;;6.20;99.90;;;;;;4916443;29;20276;-78
2024/01/14 09:10:39;;;;;;;4.82;1.80;;;6.20;99.90;;;;;;4915053;29;20257;-78
2024/01/14 09:13:06;;;;;;;7.95;3.53;;;6.20;99.90;;;;;;4916307;29;20301;-78
2024/01/14 09:15:34;;;;;;;5.00;4.00;;;6.20;99.90;;;;;;4916816;29;20225;-78
2024/01/14 09:18:03;;;;;;;9.45;5.65;;;6.30;99.90;;;;;;4906799;29;20236;-78
2024/01/14 09:20:30;;;;;;;5.50;3.22;;;6.30;99.90;;;;;;4916648;29;20680;-78
2024/01/14 09:22:57;;;;;;;6.00;2.85;;;6.40;99.90;;;;;;4916253;29;20272;-78
2024/01/14 09:25:24;;;;;;;5.50;2.90;;;6.30;99.90;;;;;;4908217;29;20618;-78
2024/01/14 09:27:52;;;;;;;8.18;2.17;;;6.30;99.90;;;;;;4903908;29;20233;-78
2024/01/14 09:30:19;;;;;;;4.03;2.83;;;6.30;99.90;;;;;;4897159;29;20230;-78
2024/01/14 09:32:46;;;;;;;4.10;2.83;;;6.30;99.90;;;;;;4897937;29;20584;-76
2024/01/14 09:35:15;;;;;;;6.35;3.33;;;6.30;99.90;;;;;;4897523;29;20593;-77
2024/01/14 09:37:42;;;;;;;4.53;3.03;;;6.30;99.90;;;;;;4887998;29;20226;-77
2024/01/14 09:40:12;;;;;;;7.28;3.55;;;6.30;99.90;;;;;;4896757;29;20559;-77
2024/01/14 09:42:40;;;;;;;5.07;2.22;;;6.30;99.90;;;;;;4897657;29;20233;-77
2024/01/14 09:45:10;;;;;;;3.72;1.77;;;6.40;99.90;;;;;;4876999;29;20237;-77
2024/01/14 09:47:37;;;;;;;4.22;2.00;;;6.30;99.90;;;;;;4897763;29;20222;-77
2024/01/14 09:50:06;;;;;;;7.18;2.30;;;6.40;99.90;;;;;;4900780;29;23859;-77
2024/01/14 09:52:35;;;;;;;7.88;2.10;;;6.40;99.90;;;;;;4901095;29;20230;-77
2024/01/14 09:55:03;;;;;;;3.40;1.83;;;6.40;99.90;;;;;;4900522;29;20298;-76
2024/01/14 09:57:31;;;;;;;7.28;2.53;;;6.40;99.90;;;;;;4901219;29;20234;-77
2024/01/14 10:00:04;;;;;;;5.70;1.80;;;6.50;99.90;;;;;;4900610;29;20308;-77
2024/01/14 10:02:33;;;;;;;3.10;2.13;;;6.40;99.90;;;;;;4900664;29;20230;-77
2024/01/14 10:05:42;;;;;;;6.68;2.30;;;6.50;99.90;;;;;;4901744;29;20241;-77
2024/01/14 10:08:10;;;;;;;3.53;1.55;;;6.50;99.90;;;;;;4862113;29;20242;-77
2024/01/14 10:10:38;;;;;;;4.72;2.00;;;6.60;99.90;;;;;;4894278;29;20297;-79
2024/01/14 10:13:06;;;;;;;3.63;2.10;;;6.50;99.90;;;;;;4900825;29;20234;-80
2024/01/14 10:15:33;;;;;;;9.30;2.53;;;6.60;99.90;;;;;;4900026;29;20234;-81
2024/01/14 10:18:00;;;;;;;4.57;1.90;;;6.60;99.90;;;;;;4900854;29;20768;-82
2024/01/14 10:20:27;;;;;;;3.92;1.60;;;6.60;99.90;;;;;;4900728;29;20233;-80
2024/01/14 10:22:54;;;;;;;5.88;1.80;;;6.60;99.90;;;;;;4900218;29;20226;-80
2024/01/14 10:25:23;;;;;;;4.60;2.15;;;6.70;99.90;;;;;;4900441;29;20238;-80
2024/01/14 10:27:49;;;;;;;4.78;1.80;;;6.70;99.90;;;;;;4899908;29;20234;-79
2024/01/14 10:30:19;;;;;;;5.75;2.67;;;6.70;99.90;;;;;;4900248;29;20325;-79
2024/01/14 10:32:47;;;;;;;4.70;2.15;;;6.60;99.90;;;;;;4899908;29;20261;-81
2024/01/14 10:35:14;;;;;;;4.53;1.90;;;6.60;99.90;;;;;;4900542;29;20234;-80
2024/01/14 10:37:41;;;;;;;5.53;1.95;;;6.60;99.90;;;;;;4899485;29;20276;-80
2024/01/14 10:40:10;;;;;;;5.95;2.53;;;6.70;99.90;;;;;;4900419;29;20596;-80
2024/01/14 10:42:39;;;;;;;5.90;2.70;;;6.50;99.90;;;;;;4899657;29;20242;-80
2024/01/14 10:45:07;;;;;;;6.18;2.95;;;6.60;99.90;;;;;;4912070;29;20573;-80
2024/01/14 10:47:35;;;;;;;5.05;2.45;;;6.50;99.90;;;;;;4918051;29;20233;-80
2024/01/14 10:50:03;;;;;;;5.93;2.78;;;6.60;99.90;;;;;;4919269;29;20237;-77
2024/01/14 10:52:34;;;;;;;2.92;1.92;;;6.60;99.90;;;;;;4918784;29;20301;-81
2024/01/14 10:55:11;;;;;;;6.15;3.45;;;6.70;99.90;;;;;;4918005;29;20244;-77
2024/01/14 10:57:44;;;;;;;7.22;4.35;;;6.70;99.90;;;;;;4919275;29;20229;-80
2024/01/14 11:00:15;;;;;;;5.05;3.20;;;6.70;99.90;;;;;;4919637;29;20229;-76
2024/01/14 11:02:44;;;;;;;6.90;2.70;;;6.70;99.90;;;;;;4900675;29;20265;-78
2024/01/14 11:05:12;;;;;;;10.07;2.85;;;6.70;99.90;;;;;;4900661;29;20238;-77
2024/01/14 11:07:39;;;;;;;1.70;1.55;;;6.70;99.90;;;;;;4901087;29;20226;-77
2024/01/14 11:10:12;;;;;;;2.97;2.67;;;6.70;99.90;;;;;;4901471;29;20225;-77
2024/01/14 11:12:52;;;;;;;11.07;2.60;;;6.70;99.90;;;;;;4900179;29;20249;-77
2024/01/14 11:15:26;;;;;;;3.28;2.70;;;6.80;99.90;;;;;;4899903;29;20241;-77
2024/01/14 11:18:00;;;;;;;6.20;2.35;;;6.80;99.90;;;;;;4897556;29;20428;-77
2024/01/14 11:20:33;;;;;;;5.75;2.03;;;6.80;99.90;;;;;;4875017;29;20237;-77
2024/01/14 11:23:00;;;;;;;8.75;2.13;;;6.90;99.90;;;;;;4907246;29;20238;-77
2024/01/14 11:25:33;;;;;;;5.55;2.58;;;6.90;99.90;;;;;;4898561;29;20242;-76
2024/01/14 11:28:02;;;;;;;3.53;2.58;;;6.90;99.90;;;;;;4897299;29;20230;-77
2024/01/14 11:30:51;;;;;;;9.25;2.05;;;7.00;99.90;;;;;;4899641;29;20234;-77
2024/01/14 11:33:38;;;;;;;3.88;1.75;;;7.00;99.90;;;;;;4898095;29;20245;-82
2024/01/14 11:36:07;;;;;;;6.07;3.10;;;7.00;99.90;;;;;;4898811;29;20241;-81
2024/01/14 11:38:35;;;;;;;3.45;2.28;;;7.10;99.90;;;;;;4898933;29;20233;-80
2024/01/14 11:41:25;;;;;;;4.68;2.38;;;7.10;99.90;;;;;;4902307;29;20233;-80
2024/01/14 11:43:54;;;;;;;6.20;2.08;;;7.20;99.90;;;;;;4902441;29;20316;-80
2024/01/14 11:46:37;;;;;;;3.30;2.10;;;7.20;99.90;;;;;;4917543;29;20237;-81
2024/01/14 11:49:04;;;;;;;4.93;1.95;;;7.20;99.90;;;;;;4917669;29;20237;-82
2024/01/14 11:51:34;;;;;;;6.63;2.28;;;7.30;99.90;;;;;;4918249;29;20627;-81
2024/01/14 11:54:07;;;;;;;6.70;2.70;;;7.30;99.90;;;;;;4913139;29;20282;-80
2024/01/14 11:56:36;;;;;;;7.03;3.50;;;7.30;99.90;;;;;;4909459;29;20292;-81
2024/01/14 11:59:09;;;;;;;5.10;2.22;;;7.30;99.90;;;;;;4906237;29;20234;-80
2024/01/14 12:01:38;;;;;;;7.15;3.17;;;7.30;99.90;;;;;;4898985;29;20229;-81
2024/01/14 12:04:08;;;;;;;7.80;4.43;;;7.30;99.90;;;;;;4915153;29;20245;-81
2024/01/14 12:06:39;;;;;;;8.48;4.32;;;7.30;99.90;;;;;;4916627;29;20234;-80
2024/01/14 12:09:07;;;;;;;8.50;5.78;;;7.20;99.90;;;;;;4915390;29;20225;-80
2024/01/14 12:11:34;;;;;;;12.02;5.43;;;7.20;99.90;;;;;;4916690;29;20225;-81
2024/01/14 12:14:02;;;;;;;7.63;3.47;;;7.20;99.90;;;;;;4916316;29;20240;-80
2024/01/14 12:16:31;;;;;;;4.10;2.20;;;7.20;99.90;;;;;;4916416;29;20229;-80
2024/01/14 12:18:58;;;;;;;5.55;3.00;;;7.20;99.90;;;;;;4917433;29;20244;-80
2024/01/14 12:21:30;;;;;;;4.45;2.92;;;7.10;99.90;;;;;;4916941;29;20225;-77
2024/01/14 12:23:58;;;;;;;7.85;2.50;;;7.00;99.90;;;;;;4917424;29;20751;-77
2024/01/14 12:26:26;;;;;;;5.72;2.15;;;7.00;99.90;;;;;;4916895;29;20233;-77
2024/01/14 12:28:55;;;;;;;5.05;2.92;;;7.00;99.90;;;;;;4917411;29;20311;-81
2024/01/14 12:31:28;;;;;;;5.82;2.78;;;7.00;99.90;;;;;;4909309;29;20234;-77
2024/01/14 12:33:56;;;;;;;4.78;2.63;;;7.00;99.90;;;;;;4912487;29;20297;-77
2024/01/14 12:36:23;;;;;;;6.13;3.90;;;7.00;99.90;;;;;;4899118;29;20234;-77
2024/01/14 12:38:50;;;;;;;9.77;3.03;;;7.00;99.90;;;;;;4901129;29;20225;-77
2024/01/14 12:41:18;;;;;;;6.63;2.30;;;7.00;99.90;;;;;;4916472;29;20229;-77
2024/01/14 12:43:45;;;;;;;5.88;2.83;;;6.90;99.90;;;;;;4915854;29;20252;-77
2024/01/14 12:46:12;;;;;;;5.80;3.05;;;6.90;99.90;;;;;;4896675;29;20237;-77
2024/01/14 12:48:43;;;;;;;4.85;3.38;;;6.90;99.90;;;;;;4911207;29;20222;-80
2024/01/14 12:51:12;;;;;;;6.13;3.17;;;7.00;99.90;;;;;;4916520;29;20239;-80
2024/01/14 12:53:39;;;;;;;4.35;2.65;;;7.00;99.90;;;;;;4917062;29;20238;-77
2024/01/14 12:56:11;;;;;;;7.32;3.85;;;7.00;99.90;;;;;;4915560;29;20261;-80
2024/01/14 12:58:39;;;;;;;9.15;2.50;;;7.10;99.90;;;;;;4917304;29;20225;-81
2024/01/14 13:01:08;;;;;;;6.22;2.63;;;7.10;99.90;;;;;;4917077;29;20811;-80